Impacts TAF Board INFO
FOR SITUATIONAL AWARENESS. NOT TO BE USED FOR FLIGHT PLANNING PURPOSES.
IDs:

KCLT - Charlotte/Douglas In, NC, US

Issued at 2328 UTC 15 Dec 2017
Updated at 0119 UTC 16 Dec 2017
Potential Impact None Slight Moderate High
Time<<16/14Z 16/15Z 16/16Z 16/17Z 16/18Z 16/19Z 16/20Z 16/21Z 16/22Z 16/23Z 17/00Z 17/01Z 17/02Z>>
Type PRVL PRVL PRVL PRVL PRVL PRVL PRVL PRVL PRVL PRVL PRVL PRVL PRVL
VIS >6 >6 >6 >6 >6 >6 >6 >6 >6 >6 >6 >6 >6
CIG -- -- -- -- -- -- -- -- -- -- 250 250 250
Cover FEW FEW FEW FEW FEW FEW FEW FEW FEW FEW BKN BKN BKN
FltCat VFR VFR VFR VFR VFR VFR VFR VFR VFR VFR VFR VFR VFR
WX -- -- -- -- -- -- -- -- -- -- -- -- --
WDir 220 220 220 220 220 220 220 220 220 220 210 210 210
WSpd 5 5 5 5 5 5 5 5 5 5 4 4 4
WGst -- -- -- -- -- -- -- -- -- -- -- -- --

Raw TAF
KCLT 152328Z 1600/1706 33004KT P6SM SCT200
  FM160700 00000KT P6SM SKC
  FM161400 22005KT P6SM FEW250
  FM170000 21004KT P6SM BKN250


METAR Board
Radar Display
Forecast Discussion

FOR SITUATIONAL AWARENESS. NOT TO BE USED FOR FLIGHT PLANNING PURPOSES.